createdAt,value
2018-12-16T00:01:09.385Z,22.70
2018-12-16T00:03:37.833Z,21.50
2018-12-16T00:06:06.170Z,22.20
2018-12-16T00:08:34.467Z,24.93
2018-12-16T00:11:02.906Z,23.97
2018-12-16T00:13:31.198Z,28.50
2018-12-16T00:15:59.490Z,22.40
2018-12-16T00:18:27.798Z,27.73
2018-12-16T00:20:56.124Z,26.40
2018-12-16T00:23:24.406Z,28.60
2018-12-16T00:25:52.689Z,25.03
2018-12-16T00:28:20.989Z,27.57
2018-12-16T00:30:49.302Z,27.67
2018-12-16T00:33:17.566Z,22.90
2018-12-16T00:35:45.820Z,30.27
2018-12-16T00:38:14.128Z,26.60
2018-12-16T00:40:42.382Z,21.90
2018-12-16T00:43:10.670Z,27.17
2018-12-16T00:45:38.937Z,27.10
2018-12-16T00:48:07.218Z,25.60
2018-12-16T00:50:35.497Z,28.10
2018-12-16T00:53:03.789Z,27.33
2018-12-16T00:55:32.089Z,25.73
2018-12-16T00:58:00.385Z,26.53
2018-12-16T01:00:28.743Z,26.43
2018-12-16T01:02:57.027Z,26.60
2018-12-16T01:05:25.338Z,23.30
2018-12-16T01:07:53.600Z,27.50
2018-12-16T01:10:21.861Z,26.23
2018-12-16T01:12:50.125Z,26.43
2018-12-16T01:18:03.338Z,24.60
2018-12-16T01:20:31.620Z,21.90
2018-12-16T01:22:59.880Z,24.30
2018-12-16T01:25:28.154Z,23.70
2018-12-16T01:27:56.445Z,27.50
2018-12-16T01:30:24.732Z,24.83
2018-12-16T01:32:52.959Z,24.87
2018-12-16T01:35:21.252Z,25.00
2018-12-16T01:37:49.515Z,23.13
2018-12-16T01:40:17.795Z,24.57
2018-12-16T01:42:46.094Z,23.63
2018-12-16T01:45:14.438Z,24.50
2018-12-16T01:47:42.721Z,21.23
2018-12-16T01:50:11.044Z,21.00
2018-12-16T01:52:39.339Z,23.73
2018-12-16T01:55:07.761Z,23.87
2018-12-16T01:57:36.054Z,21.77
2018-12-16T02:00:04.719Z,22.37
2018-12-16T02:02:33.012Z,26.10
2018-12-16T02:05:01.277Z,23.70
2018-12-16T02:07:29.588Z,23.93
2018-12-16T02:09:57.890Z,21.43
2018-12-16T02:12:26.213Z,23.97
2018-12-16T02:14:54.480Z,26.03
2018-12-16T02:17:22.832Z,23.43
2018-12-16T02:19:51.128Z,32.93
2018-12-16T02:22:19.378Z,22.33
2018-12-16T02:24:47.647Z,25.10
2018-12-16T02:27:15.972Z,21.80
2018-12-16T02:29:44.252Z,22.43
2018-12-16T02:32:12.579Z,25.03
2018-12-16T02:34:40.905Z,23.97
2018-12-16T02:37:09.210Z,22.00
2018-12-16T02:39:37.510Z,24.70
2018-12-16T02:42:05.801Z,24.47
2018-12-16T02:44:34.148Z,19.93
2018-12-16T02:47:02.519Z,23.57
2018-12-16T02:49:30.816Z,25.37
2018-12-16T02:51:59.149Z,22.60
2018-12-16T02:54:27.419Z,22.80
2018-12-16T02:56:55.718Z,24.67
2018-12-16T02:59:23.982Z,23.50
2018-12-16T03:01:52.297Z,22.23
2018-12-16T03:04:20.613Z,21.27
2018-12-16T03:06:48.955Z,24.97
2018-12-16T03:09:17.432Z,27.77
2018-12-16T03:11:45.772Z,25.60
2018-12-16T03:14:14.114Z,24.80
2018-12-16T03:16:42.370Z,28.40
2018-12-16T03:19:10.709Z,23.47
2018-12-16T03:21:39.034Z,23.17
2018-12-16T03:24:07.326Z,24.50
2018-12-16T03:26:36.383Z,19.77
2018-12-16T03:29:04.806Z,22.33
2018-12-16T03:31:33.076Z,24.10
2018-12-16T03:34:01.554Z,22.37
2018-12-16T03:36:29.894Z,25.20
2018-12-16T03:38:58.235Z,19.30
2018-12-16T03:41:26.527Z,20.00
2018-12-16T03:43:54.809Z,21.67
2018-12-16T03:46:23.238Z,24.53
2018-12-16T03:48:51.499Z,22.30
2018-12-16T03:51:19.807Z,18.67
2018-12-16T03:53:48.071Z,23.07
2018-12-16T03:56:16.360Z,19.70
2018-12-16T03:58:56.041Z,23.53
2018-12-16T04:01:24.384Z,21.83
2018-12-16T04:03:52.671Z,22.00
2018-12-16T04:06:21.135Z,21.68
2018-12-16T04:08:49.815Z,22.70
2018-12-16T04:11:18.246Z,22.27
2018-12-16T04:13:46.589Z,27.60
2018-12-16T04:16:14.875Z,21.67
2018-12-16T04:18:43.192Z,24.57
2018-12-16T04:21:11.490Z,23.20
2018-12-16T04:23:39.857Z,25.40
2018-12-16T04:26:08.127Z,25.93
2018-12-16T04:28:36.620Z,20.10
2018-12-16T04:31:04.863Z,23.37
2018-12-16T04:33:33.269Z,23.20
2018-12-16T04:36:01.745Z,25.30
2018-12-16T04:38:30.146Z,25.90
2018-12-16T04:40:58.370Z,29.40
2018-12-16T04:43:26.765Z,25.83
2018-12-16T04:45:55.066Z,26.33
2018-12-16T04:48:23.334Z,25.87
2018-12-16T04:50:51.626Z,26.63
2018-12-16T04:53:19.885Z,23.87
2018-12-16T04:55:48.128Z,23.80
2018-12-16T04:58:16.417Z,26.63
2018-12-16T05:00:44.700Z,27.80
2018-12-16T05:03:12.917Z,25.40
2018-12-16T05:05:41.228Z,29.07
2018-12-16T05:08:09.565Z,28.77
2018-12-16T05:10:38.188Z,29.07
2018-12-16T05:13:06.549Z,30.20
2018-12-16T05:15:34.822Z,26.20
2018-12-16T05:18:03.115Z,26.13
2018-12-16T05:20:31.606Z,29.83
2018-12-16T05:23:00.228Z,33.30
2018-12-16T05:25:28.516Z,28.73
2018-12-16T05:27:56.949Z,30.03
2018-12-16T05:30:25.206Z,27.40
2018-12-16T05:32:53.709Z,26.27
2018-12-16T05:35:21.946Z,29.47
2018-12-16T05:37:50.216Z,29.27
2018-12-16T05:40:18.506Z,27.20
2018-12-16T05:42:46.742Z,31.30
2018-12-16T05:45:15.013Z,28.47
2018-12-16T05:47:43.271Z,27.13
2018-12-16T05:50:12.016Z,29.37
2018-12-16T05:52:40.328Z,36.77
2018-12-16T05:55:08.706Z,33.77
2018-12-16T05:57:37.003Z,35.57
2018-12-16T06:00:05.844Z,33.27
2018-12-16T06:02:34.207Z,29.80
2018-12-16T06:05:02.485Z,34.47
2018-12-16T06:07:31.189Z,31.53
2018-12-16T06:10:00.990Z,36.57
2018-12-16T06:12:29.439Z,30.33
2018-12-16T06:14:57.773Z,34.47
2018-12-16T06:17:26.200Z,32.03
2018-12-16T06:19:54.485Z,33.27
2018-12-16T06:22:22.753Z,33.83
2018-12-16T06:24:51.198Z,31.93
2018-12-16T06:27:19.474Z,31.63
2018-12-16T06:29:48.184Z,34.40
2018-12-16T06:32:16.464Z,35.50
2018-12-16T06:34:44.702Z,31.57
2018-12-16T06:37:12.964Z,33.80
2018-12-16T06:39:41.464Z,31.57
2018-12-16T06:42:09.828Z,33.43
2018-12-16T06:44:38.114Z,31.80
2018-12-16T06:47:06.399Z,32.47
2018-12-16T06:49:34.700Z,27.67
2018-12-16T06:52:02.981Z,29.97
2018-12-16T06:54:31.445Z,32.07
2018-12-16T06:56:59.705Z,30.47
2018-12-16T06:59:28.242Z,32.27
2018-12-16T07:01:56.511Z,28.93
2018-12-16T07:04:24.871Z,32.80
2018-12-16T07:06:53.315Z,28.17
2018-12-16T07:09:21.636Z,29.97
2018-12-16T07:11:49.939Z,27.53
2018-12-16T07:14:18.208Z,34.67
2018-12-16T07:16:46.812Z,34.83
2018-12-16T07:19:15.194Z,30.90
2018-12-16T07:21:43.609Z,31.00
2018-12-16T07:24:11.896Z,30.23
2018-12-16T07:26:40.166Z,31.50
2018-12-16T07:29:08.483Z,31.93
2018-12-16T07:31:36.950Z,33.03
2018-12-16T07:34:05.226Z,32.40
2018-12-16T07:36:33.611Z,29.80
2018-12-16T07:39:01.905Z,31.00
2018-12-16T07:41:30.435Z,39.83
2018-12-16T07:43:58.688Z,35.83
2018-12-16T07:46:26.947Z,29.60
2018-12-16T07:48:55.629Z,32.13
2018-12-16T07:51:23.949Z,29.70
2018-12-16T07:53:52.234Z,113.50
2018-12-16T07:56:20.604Z,33.43
2018-12-16T07:58:48.887Z,30.67
2018-12-16T08:01:17.098Z,31.77
2018-12-16T08:03:45.377Z,31.93
2018-12-16T08:06:13.636Z,33.40
2018-12-16T08:08:41.936Z,28.67
2018-12-16T08:11:10.245Z,30.37
2018-12-16T08:13:38.541Z,31.63
2018-12-16T08:16:06.818Z,33.50
2018-12-16T08:18:35.093Z,34.40
2018-12-16T08:21:03.418Z,31.77
2018-12-16T08:23:31.726Z,31.70
2018-12-16T08:25:59.995Z,31.93
2018-12-16T08:28:28.243Z,29.00
2018-12-16T08:30:56.520Z,31.93
2018-12-16T08:33:24.912Z,29.60
2018-12-16T08:35:53.198Z,27.53
2018-12-16T08:38:21.461Z,34.50
2018-12-16T08:40:49.726Z,37.43
2018-12-16T08:43:17.979Z,31.03
2018-12-16T08:45:46.259Z,31.73
2018-12-16T08:48:14.653Z,30.27
2018-12-16T08:50:42.890Z,49.60
2018-12-16T08:53:11.185Z,31.13
2018-12-16T08:55:39.482Z,32.20
2018-12-16T08:58:07.708Z,28.87
2018-12-16T09:00:36.045Z,31.03
2018-12-16T09:03:04.303Z,31.47
2018-12-16T09:05:32.622Z,31.83
2018-12-16T09:08:00.904Z,34.40
2018-12-16T09:10:34.029Z,31.83
2018-12-16T09:12:59.502Z,30.90
2018-12-16T09:15:27.791Z,30.17
2018-12-16T09:17:56.069Z,29.70
2018-12-16T09:20:24.316Z,51.13
2018-12-16T09:22:52.603Z,29.57
2018-12-16T09:25:20.975Z,32.43
2018-12-16T09:27:49.222Z,30.33
2018-12-16T09:30:17.574Z,30.60
2018-12-16T09:32:45.894Z,32.70
2018-12-16T09:35:14.153Z,32.63
2018-12-16T09:37:42.607Z,31.37
2018-12-16T09:40:10.899Z,32.13
2018-12-16T09:42:39.189Z,28.93
2018-12-16T09:45:07.735Z,32.73
2018-12-16T09:47:36.422Z,34.43
2018-12-16T09:50:04.712Z,29.83
2018-12-16T09:52:32.968Z,33.97
2018-12-16T09:55:01.226Z,32.30
2018-12-16T09:57:38.094Z,33.43
2018-12-16T10:00:08.048Z,28.10
2018-12-16T10:02:36.368Z,31.27
2018-12-16T10:05:04.968Z,29.93
2018-12-16T10:07:33.271Z,34.97
2018-12-16T10:10:10.213Z,34.20
2018-12-16T10:12:38.534Z,30.73
2018-12-16T10:15:07.158Z,31.83
2018-12-16T10:17:35.426Z,28.97
2018-12-16T10:20:03.965Z,35.07
2018-12-16T10:22:32.313Z,30.90
2018-12-16T10:25:00.562Z,30.97
2018-12-16T10:27:28.824Z,28.32
2018-12-16T10:29:57.117Z,31.03
2018-12-16T10:32:25.549Z,33.27
2018-12-16T10:34:53.868Z,29.33
2018-12-16T10:37:22.144Z,37.30
2018-12-16T10:39:51.540Z,68.80
2018-12-16T10:42:19.870Z,32.00
2018-12-16T10:44:48.144Z,35.43
2018-12-16T10:47:16.490Z,28.83
2018-12-16T10:49:44.816Z,35.47
2018-12-16T10:52:13.089Z,29.97
2018-12-16T10:54:41.334Z,29.93
2018-12-16T10:57:09.682Z,31.62
2018-12-16T10:59:37.979Z,30.93
2018-12-16T11:02:06.362Z,33.33
2018-12-16T11:04:34.632Z,35.52
2018-12-16T11:07:02.919Z,31.83
2018-12-16T11:09:31.288Z,30.97
2018-12-16T11:11:59.741Z,30.43
2018-12-16T11:14:28.281Z,37.13
2018-12-16T11:16:57.339Z,30.17
2018-12-16T11:19:25.602Z,36.10
2018-12-16T11:21:53.874Z,30.23
2018-12-16T11:24:22.172Z,33.40
2018-12-16T11:26:50.474Z,30.47
2018-12-16T11:29:18.833Z,29.63
2018-12-16T11:31:47.142Z,32.00
2018-12-16T11:34:15.431Z,32.50
2018-12-16T11:36:43.882Z,32.47
2018-12-16T11:39:12.164Z,35.13
2018-12-16T11:41:40.618Z,32.17
2018-12-16T11:44:08.916Z,32.17
2018-12-16T11:46:37.238Z,32.73
2018-12-16T11:49:05.510Z,36.80
2018-12-16T11:51:33.956Z,32.80
2018-12-16T11:54:02.189Z,32.97
2018-12-16T11:56:30.503Z,30.57
2018-12-16T11:58:59.016Z,31.33
2018-12-16T12:01:27.463Z,34.90
2018-12-16T12:03:55.782Z,40.93
2018-12-16T12:06:24.045Z,33.00
2018-12-16T12:08:52.372Z,32.70
2018-12-16T12:11:20.666Z,34.18
2018-12-16T12:13:48.943Z,33.92
2018-12-16T12:16:17.277Z,28.57
2018-12-16T12:18:45.594Z,29.83
2018-12-16T12:21:14.901Z,31.27
2018-12-16T12:23:43.243Z,30.95
2018-12-16T12:26:11.566Z,31.37
2018-12-16T12:28:41.520Z,33.87
2018-12-16T12:31:10.246Z,31.10
2018-12-16T12:33:38.518Z,31.50
2018-12-16T12:36:07.989Z,30.85
2018-12-16T12:38:38.691Z,34.10
2018-12-16T12:41:07.051Z,31.40
2018-12-16T12:43:35.350Z,32.03
2018-12-16T12:46:03.683Z,36.20
2018-12-16T12:48:32.005Z,31.37
2018-12-16T12:51:00.636Z,32.43
2018-12-16T12:53:29.911Z,33.88
2018-12-16T12:55:58.322Z,34.30
2018-12-16T12:58:26.588Z,39.75
2018-12-16T13:00:54.914Z,31.50
2018-12-16T13:03:23.218Z,36.57
2018-12-16T13:05:51.565Z,36.20
2018-12-16T13:08:20.049Z,35.53
2018-12-16T13:10:48.400Z,37.17
2018-12-16T13:13:16.700Z,33.90
2018-12-16T13:15:45.049Z,33.63
2018-12-16T13:18:13.343Z,32.75
2018-12-16T13:20:41.681Z,36.20
2018-12-16T13:23:10.021Z,33.93
2018-12-16T13:25:49.818Z,34.30
2018-12-16T13:28:18.178Z,37.80
2018-12-16T13:30:46.536Z,34.97
2018-12-16T13:33:14.858Z,33.13
2018-12-16T13:35:43.349Z,31.97
2018-12-16T13:38:11.708Z,39.40
2018-12-16T13:40:40.046Z,35.73
2018-12-16T13:43:08.435Z,33.73
2018-12-16T13:45:37.261Z,31.07
2018-12-16T13:48:05.564Z,31.73
2018-12-16T13:50:33.890Z,31.97
2018-12-16T13:53:02.191Z,34.60
2018-12-16T13:55:40.805Z,34.70
2018-12-16T13:58:07.727Z,33.53
2018-12-16T14:00:36.062Z,31.35
2018-12-16T14:03:04.377Z,37.97
2018-12-16T14:05:32.698Z,38.20
2018-12-16T14:08:00.993Z,33.93
2018-12-16T14:10:29.260Z,34.87
2018-12-16T14:12:57.585Z,44.85
2018-12-16T14:15:25.811Z,40.90
2018-12-16T14:17:54.172Z,38.88
2018-12-16T14:20:22.451Z,36.70
2018-12-16T14:22:50.840Z,37.50
2018-12-16T14:25:19.141Z,32.00
2018-12-16T14:27:47.406Z,30.88
2018-12-16T14:30:15.780Z,36.80
2018-12-16T14:32:44.163Z,34.83
2018-12-16T14:35:12.923Z,33.97
2018-12-16T14:37:41.195Z,37.60
2018-12-16T14:40:10.388Z,37.27
2018-12-16T14:42:38.803Z,43.20
2018-12-16T14:45:08.631Z,38.17
2018-12-16T14:47:37.081Z,43.80
2018-12-16T14:50:07.449Z,39.17
2018-12-16T14:52:35.706Z,41.73
2018-12-16T14:55:04.773Z,53.78
2018-12-16T14:57:33.117Z,46.80
2018-12-16T15:00:01.556Z,42.60
2018-12-16T15:02:29.904Z,40.13
2018-12-16T15:04:58.150Z,46.13
2018-12-16T15:10:33.323Z,47.63
2018-12-16T15:13:04.306Z,50.87
2018-12-16T15:15:33.629Z,41.87
2018-12-16T15:18:01.949Z,39.10
2018-12-16T15:20:30.291Z,47.47
2018-12-16T15:22:58.733Z,49.77
2018-12-16T15:25:27.060Z,50.70
2018-12-16T15:27:56.133Z,42.27
2018-12-16T15:30:24.448Z,44.73
2018-12-16T15:32:52.811Z,45.13
2018-12-16T15:35:21.071Z,47.23
2018-12-16T15:37:49.327Z,54.47
2018-12-16T15:40:18.035Z,53.07
2018-12-16T15:42:46.438Z,53.27
2018-12-16T15:45:14.749Z,48.80
2018-12-16T15:47:43.085Z,53.53
2018-12-16T15:50:11.401Z,55.70
2018-12-16T15:52:39.673Z,57.23
2018-12-16T15:55:10.049Z,151.15
2018-12-16T15:57:38.365Z,62.47
2018-12-16T16:00:07.109Z,60.65
2018-12-16T16:02:35.503Z,55.00
2018-12-16T16:05:03.928Z,60.30
2018-12-16T16:07:32.573Z,63.83
2018-12-16T16:10:00.908Z,69.37
2018-12-16T16:12:29.255Z,67.70
2018-12-16T16:14:57.592Z,72.33
2018-12-16T16:17:26.105Z,78.27
2018-12-16T16:19:54.764Z,64.53
2018-12-16T16:22:23.249Z,66.33
2018-12-16T16:24:51.642Z,65.87
2018-12-16T16:27:20.022Z,61.13
2018-12-16T16:29:48.401Z,64.50
2018-12-16T16:32:16.740Z,75.03
2018-12-16T16:34:45.043Z,74.20
2018-12-16T16:37:13.509Z,86.37
2018-12-16T16:39:41.954Z,68.97
2018-12-16T16:42:10.294Z,76.60
2018-12-16T16:44:39.074Z,75.03
2018-12-16T16:47:07.510Z,84.77
2018-12-16T16:49:35.901Z,76.87
2018-12-16T16:52:04.575Z,86.80
2018-12-16T16:54:32.997Z,86.40
2018-12-16T16:57:01.563Z,84.83
2018-12-16T16:59:30.017Z,94.83
2018-12-16T17:01:58.329Z,90.00
2018-12-16T17:04:26.831Z,83.10
2018-12-16T17:06:55.330Z,80.90
2018-12-16T17:09:23.675Z,90.37
2018-12-16T17:11:52.212Z,87.15
2018-12-16T17:14:20.562Z,86.20
2018-12-16T17:16:49.067Z,105.57
2018-12-16T17:19:17.512Z,92.27
2018-12-16T17:21:46.165Z,102.47
2018-12-16T17:24:14.623Z,123.67
2018-12-16T17:26:43.036Z,110.40
2018-12-16T17:29:11.761Z,95.50
2018-12-16T17:31:40.141Z,77.47
2018-12-16T17:34:08.545Z,117.77
2018-12-16T17:36:37.188Z,108.23
2018-12-16T17:39:08.111Z,105.03
2018-12-16T17:41:36.434Z,116.30
2018-12-16T17:44:05.127Z,100.60
2018-12-16T17:46:33.466Z,130.03
2018-12-16T17:49:01.923Z,93.10
2018-12-16T17:51:30.425Z,97.97
2018-12-16T17:53:58.739Z,105.40
2018-12-16T17:56:27.020Z,106.70
2018-12-16T17:58:55.788Z,103.70
2018-12-16T18:01:24.704Z,121.37
2018-12-16T18:03:53.821Z,98.67
2018-12-16T18:06:22.514Z,119.27
2018-12-16T18:08:51.538Z,125.67
2018-12-16T18:11:19.790Z,111.07
2018-12-16T18:13:48.391Z,107.47
2018-12-16T18:16:16.902Z,118.87
2018-12-16T18:18:45.196Z,112.73
2018-12-16T18:21:13.493Z,105.95
2018-12-16T18:23:41.856Z,146.20
2018-12-16T18:26:10.653Z,116.47
2018-12-16T18:28:39.357Z,128.23
2018-12-16T18:31:07.868Z,104.47
2018-12-16T18:33:36.164Z,112.70
2018-12-16T18:36:04.473Z,108.78
2018-12-16T18:38:33.226Z,105.03
2018-12-16T18:41:01.672Z,114.57
2018-12-16T18:43:30.288Z,113.30
2018-12-16T18:45:59.131Z,97.20
2018-12-16T18:48:27.462Z,109.43
2018-12-16T18:50:55.865Z,94.10
2018-12-16T18:53:24.451Z,97.00
2018-12-16T18:55:52.744Z,102.35
2018-12-16T18:58:22.268Z,129.17
2018-12-16T19:00:50.616Z,111.50
2018-12-16T19:03:19.252Z,109.40
2018-12-16T19:05:47.757Z,121.93
2018-12-16T19:08:16.386Z,107.17
2018-12-16T19:10:45.372Z,97.23
2018-12-16T19:15:57.612Z,106.15
2018-12-16T19:18:27.324Z,94.03
2018-12-16T19:20:55.638Z,102.93
2018-12-16T19:23:25.993Z,101.97
2018-12-16T19:26:10.537Z,95.07
2018-12-16T19:28:45.193Z,90.67
2018-12-16T19:31:23.113Z,100.33
2018-12-16T19:34:21.480Z,89.93
2018-12-16T19:36:55.779Z,83.17
2018-12-16T19:39:39.207Z,95.67
2018-12-16T19:42:07.638Z,101.95
2018-12-16T19:44:35.912Z,83.63
2018-12-16T19:47:04.363Z,91.10
2018-12-16T19:49:32.876Z,86.72
2018-12-16T19:52:01.245Z,89.27
2018-12-16T19:54:30.122Z,93.85
2018-12-16T19:57:04.942Z,84.40
2018-12-16T19:59:29.052Z,96.17
2018-12-16T20:01:57.311Z,88.07
2018-12-16T20:04:30.762Z,86.00
2018-12-16T20:06:59.198Z,77.13
2018-12-16T20:09:28.084Z,83.40
2018-12-16T20:11:56.570Z,90.80
2018-12-16T20:14:25.317Z,98.80
2018-12-16T20:16:53.841Z,101.27
2018-12-16T20:19:22.225Z,95.67
2018-12-16T20:21:51.064Z,79.12
2018-12-16T20:24:19.714Z,95.92
2018-12-16T20:26:48.101Z,83.75
2018-12-16T20:29:16.422Z,95.60
2018-12-16T20:31:44.825Z,110.83
2018-12-16T20:34:13.411Z,107.12
2018-12-16T20:36:41.790Z,79.60
2018-12-16T20:39:10.183Z,83.87
2018-12-16T20:41:38.469Z,90.65
2018-12-16T20:44:06.793Z,87.47
2018-12-16T20:46:35.111Z,88.77
2018-12-16T20:49:03.450Z,81.05
2018-12-16T20:51:31.785Z,91.90
2018-12-16T20:54:00.312Z,80.35
2018-12-16T20:56:28.655Z,95.30
2018-12-16T20:58:58.581Z,86.63
2018-12-16T21:01:27.797Z,90.03
2018-12-16T21:03:56.530Z,91.90
2018-12-16T21:06:25.070Z,83.15
2018-12-16T21:08:53.860Z,78.57
2018-12-16T21:11:27.630Z,70.40
2018-12-16T21:14:01.350Z,76.70
2018-12-16T21:16:35.094Z,64.43
2018-12-16T21:19:03.430Z,59.90
2018-12-16T21:21:31.805Z,70.07
2018-12-16T21:24:00.902Z,109.57
2018-12-16T21:26:29.762Z,63.90
2018-12-16T21:28:58.576Z,68.63
2018-12-16T21:31:27.021Z,80.28
2018-12-16T21:33:55.422Z,62.13
2018-12-16T21:36:23.741Z,62.50
2018-12-16T21:38:52.050Z,51.40
2018-12-16T21:41:21.864Z,59.40
2018-12-16T21:43:51.156Z,61.57
2018-12-16T21:46:19.860Z,47.25
2018-12-16T21:48:48.194Z,52.43
2018-12-16T21:51:16.584Z,57.45
2018-12-16T21:53:44.850Z,56.13
2018-12-16T21:56:13.266Z,64.77
2018-12-16T21:58:41.829Z,57.23
2018-12-16T22:01:10.344Z,59.05
2018-12-16T22:03:39.074Z,59.42
2018-12-16T22:06:08.222Z,59.90
2018-12-16T22:08:36.643Z,403.27
2018-12-16T22:11:05.021Z,251.90
2018-12-16T22:13:33.283Z,61.20
2018-12-16T22:16:01.736Z,62.67
2018-12-16T22:18:30.466Z,57.57
2018-12-16T22:20:58.794Z,54.73
2018-12-16T22:23:27.445Z,57.13
2018-12-16T22:25:55.837Z,53.30
2018-12-16T22:28:24.105Z,52.60
2018-12-16T22:30:52.498Z,56.80
2018-12-16T22:33:20.902Z,52.98
2018-12-16T22:35:49.253Z,61.28
2018-12-16T22:38:17.714Z,54.55
2018-12-16T22:40:46.108Z,56.23
2018-12-16T22:43:15.180Z,57.13
2018-12-16T22:45:43.504Z,55.90
2018-12-16T22:48:11.923Z,48.90
2018-12-16T22:50:40.228Z,50.92
2018-12-16T22:53:08.630Z,53.25
2018-12-16T22:55:37.054Z,54.15
2018-12-16T22:58:05.340Z,49.65
2018-12-16T23:00:35.801Z,60.63
2018-12-16T23:03:04.087Z,61.92
2018-12-16T23:05:32.411Z,57.30
2018-12-16T23:08:00.732Z,54.17
2018-12-16T23:10:28.973Z,51.43
2018-12-16T23:12:57.339Z,56.95
2018-12-16T23:15:25.727Z,58.08
2018-12-16T23:17:54.101Z,56.00
2018-12-16T23:20:24.470Z,57.38
2018-12-16T23:22:52.884Z,61.10
2018-12-16T23:25:21.240Z,53.13
2018-12-16T23:27:54.119Z,67.40
2018-12-16T23:30:19.838Z,61.10
2018-12-16T23:32:48.158Z,61.80
2018-12-16T23:35:16.433Z,68.50
2018-12-16T23:37:44.730Z,58.70
2018-12-16T23:40:13.068Z,56.07
2018-12-16T23:42:41.369Z,69.77
2018-12-16T23:45:09.957Z,62.27
2018-12-16T23:47:38.297Z,72.50
2018-12-16T23:50:06.943Z,50.40
2018-12-16T23:52:35.247Z,60.40
2018-12-16T23:55:03.771Z,62.90
2018-12-16T23:57:32.016Z,61.10
